sensor_id;sensor_type;location;lat;lon;timestamp;pressure;altitude;pressure_sealevel;temperature;humidity
12676;BME280;63820;65.654;21.944;2023-07-31T00:00:22;100368.69;;;10.74;100.00
12676;BME280;63820;65.654;21.944;2023-07-31T00:03:06;100358.56;;;10.68;100.00
12676;BME280;63820;65.654;21.944;2023-07-31T00:05:51;100374.69;;;10.76;100.00
12676;BME280;63820;65.654;21.944;2023-07-31T00:08:35;100384.94;;;10.79;100.00
12676;BME280;63820;65.654;21.944;2023-07-31T00:11:19;100374.03;;;10.71;100.00
12676;BME280;63820;65.654;21.944;2023-07-31T00:14:04;100376.78;;;10.68;100.00
12676;BME280;63820;65.654;21.944;2023-07-31T00:16:49;100370.38;;;10.56;100.00
12676;BME280;63820;65.654;21.944;2023-07-31T00:19:33;100379.16;;;10.54;100.00
12676;BME280;63820;65.654;21.944;2023-07-31T00:22:18;100368.25;;;10.45;100.00
12676;BME280;63820;65.654;21.944;2023-07-31T00:25:02;100379.34;;;10.49;100.00
12676;BME280;63820;65.654;21.944;2023-07-31T00:27:46;100383.59;;;10.52;100.00
12676;BME280;63820;65.654;21.944;2023-07-31T00:30:30;100388.59;;;10.56;100.00
12676;BME280;63820;65.654;21.944;2023-07-31T00:33:15;100393.59;;;10.61;100.00
12676;BME280;63820;65.654;21.944;2023-07-31T00:35:59;100399.13;;;10.53;100.00
12676;BME280;63820;65.654;21.944;2023-07-31T00:38:43;100395.31;;;10.41;100.00
12676;BME280;63820;65.654;21.944;2023-07-31T00:41:28;100385.28;;;10.34;100.00
12676;BME280;63820;65.654;21.944;2023-07-31T00:44:12;100393.78;;;10.37;100.00
12676;BME280;63820;65.654;21.944;2023-07-31T00:46:57;100403.66;;;10.29;100.00
12676;BME280;63820;65.654;21.944;2023-07-31T00:49:45;100407.31;;;10.25;100.00
12676;BME280;63820;65.654;21.944;2023-07-31T00:52:29;100395.72;;;10.12;100.00
12676;BME280;63820;65.654;21.944;2023-07-31T00:55:14;100409.63;;;10.11;100.00
12676;BME280;63820;65.654;21.944;2023-07-31T00:57:58;100409.03;;;10.04;100.00
12676;BME280;63820;65.654;21.944;2023-07-31T01:00:42;100409.16;;;10.01;100.00
12676;BME280;63820;65.654;21.944;2023-07-31T01:03:27;100411.03;;;9.98;100.00
12676;BME280;63820;65.654;21.944;2023-07-31T01:12:48;100417.66;;;9.84;100.00
12676;BME280;63820;65.654;21.944;2023-07-31T01:15:41;100421.16;;;9.83;100.00
12676;BME280;63820;65.654;21.944;2023-07-31T01:18:28;100427.34;;;9.81;100.00
12676;BME280;63820;65.654;21.944;2023-07-31T01:21:38;100426.63;;;9.77;100.00
12676;BME280;63820;65.654;21.944;2023-07-31T01:24:42;100432.78;;;9.75;100.00
12676;BME280;63820;65.654;21.944;2023-07-31T01:27:37;100430.25;;;9.73;100.00
12676;BME280;63820;65.654;21.944;2023-07-31T01:30:27;100432.06;;;9.71;100.00
12676;BME280;63820;65.654;21.944;2023-07-31T01:33:18;100430.38;;;9.70;100.00
12676;BME280;63820;65.654;21.944;2023-07-31T01:36:03;100431.22;;;9.71;100.00
12676;BME280;63820;65.654;21.944;2023-07-31T01:38:49;100421.78;;;9.68;100.00
12676;BME280;63820;65.654;21.944;2023-07-31T01:41:34;100425.16;;;9.70;100.00
12676;BME280;63820;65.654;21.944;2023-07-31T01:44:19;100432.66;;;9.78;100.00
12676;BME280;63820;65.654;21.944;2023-07-31T01:47:05;100428.31;;;9.78;100.00
12676;BME280;63820;65.654;21.944;2023-07-31T01:49:50;100430.78;;;9.81;100.00
12676;BME280;63820;65.654;21.944;2023-07-31T01:52:36;100429.75;;;9.86;100.00
12676;BME280;63820;65.654;21.944;2023-07-31T01:55:23;100433.13;;;9.88;100.00
12676;BME280;63820;65.654;21.944;2023-07-31T01:58:09;100446.97;;;9.88;100.00
12676;BME280;63820;65.654;21.944;2023-07-31T02:00:53;100438.44;;;9.84;100.00
12676;BME280;63820;65.654;21.944;2023-07-31T02:03:37;100441.88;;;9.85;100.00
12676;BME280;63820;65.654;21.944;2023-07-31T02:06:22;100452.88;;;9.92;100.00
12676;BME280;63820;65.654;21.944;2023-07-31T02:09:07;100440.19;;;9.84;100.00
12676;BME280;63820;65.654;21.944;2023-07-31T02:11:53;100453.59;;;9.95;100.00
12676;BME280;63820;65.654;21.944;2023-07-31T02:14:39;100458.03;;;9.93;100.00
12676;BME280;63820;65.654;21.944;2023-07-31T02:17:24;100461.16;;;10.01;100.00
12676;BME280;63820;65.654;21.944;2023-07-31T02:20:16;100460.19;;;10.04;100.00
12676;BME280;63820;65.654;21.944;2023-07-31T02:23:01;100461.63;;;10.11;100.00
12676;BME280;63820;65.654;21.944;2023-07-31T02:25:49;100452.66;;;10.18;100.00
12676;BME280;63820;65.654;21.944;2023-07-31T02:28:34;100455.09;;;10.23;100.00
12676;BME280;63820;65.654;21.944;2023-07-31T02:31:19;100443.84;;;10.22;100.00
12676;BME280;63820;65.654;21.944;2023-07-31T02:34:05;100453.72;;;10.34;100.00
12676;BME280;63820;65.654;21.944;2023-07-31T02:36:52;100467.22;;;10.42;100.00
12676;BME280;63820;65.654;21.944;2023-07-31T02:39:38;100460.06;;;10.47;100.00
12676;BME280;63820;65.654;21.944;2023-07-31T02:42:22;100450.50;;;10.48;100.00
12676;BME280;63820;65.654;21.944;2023-07-31T02:45:09;100458.69;;;10.59;100.00
12676;BME280;63820;65.654;21.944;2023-07-31T02:47:55;100459.34;;;10.64;100.00
12676;BME280;63820;65.654;21.944;2023-07-31T02:50:39;100467.31;;;10.80;100.00
12676;BME280;63820;65.654;21.944;2023-07-31T02:53:24;100463.47;;;10.89;100.00
12676;BME280;63820;65.654;21.944;2023-07-31T02:56:09;100464.75;;;10.99;100.00
12676;BME280;63820;65.654;21.944;2023-07-31T02:58:54;100460.88;;;11.07;100.00
12676;BME280;63820;65.654;21.944;2023-07-31T03:01:38;100472.91;;;11.29;100.00
12676;BME280;63820;65.654;21.944;2023-07-31T03:04:22;100471.84;;;11.33;100.00
12676;BME280;63820;65.654;21.944;2023-07-31T03:07:06;100477.38;;;11.44;100.00
12676;BME280;63820;65.654;21.944;2023-07-31T03:09:51;100480.66;;;11.66;100.00
12676;BME280;63820;65.654;21.944;2023-07-31T03:12:35;100480.50;;;11.88;100.00
12676;BME280;63820;65.654;21.944;2023-07-31T03:15:21;100470.47;;;11.98;100.00
12676;BME280;63820;65.654;21.944;2023-07-31T03:18:06;100479.31;;;12.13;100.00
12676;BME280;63820;65.654;21.944;2023-07-31T03:20:52;100472.50;;;12.10;100.00
12676;BME280;63820;65.654;21.944;2023-07-31T03:23:38;100476.09;;;12.07;100.00
12676;BME280;63820;65.654;21.944;2023-07-31T03:26:22;100484.59;;;12.11;100.00
12676;BME280;63820;65.654;21.944;2023-07-31T03:29:08;100491.28;;;12.17;100.00
12676;BME280;63820;65.654;21.944;2023-07-31T03:31:53;100487.84;;;12.33;100.00
12676;BME280;63820;65.654;21.944;2023-07-31T03:34:38;100490.41;;;12.51;100.00
12676;BME280;63820;65.654;21.944;2023-07-31T03:37:26;100495.59;;;12.68;100.00
12676;BME280;63820;65.654;21.944;2023-07-31T03:40:11;100498.31;;;12.99;100.00
12676;BME280;63820;65.654;21.944;2023-07-31T03:42:57;100498.16;;;13.51;100.00
12676;BME280;63820;65.654;21.944;2023-07-31T03:45:42;100518.72;;;14.19;100.00
12676;BME280;63820;65.654;21.944;2023-07-31T03:48:28;100517.75;;;14.80;100.00
12676;BME280;63820;65.654;21.944;2023-07-31T03:51:17;100516.09;;;15.62;100.00
12676;BME280;63820;65.654;21.944;2023-07-31T03:54:04;100513.13;;;16.48;100.00
12676;BME280;63820;65.654;21.944;2023-07-31T03:56:49;100513.94;;;17.37;100.00
12676;BME280;63820;65.654;21.944;2023-07-31T03:59:35;100520.06;;;18.22;100.00
12676;BME280;63820;65.654;21.944;2023-07-31T04:02:21;100528.50;;;19.07;100.00
12676;BME280;63820;65.654;21.944;2023-07-31T04:05:09;100521.19;;;19.66;100.00
12676;BME280;63820;65.654;21.944;2023-07-31T04:07:55;100524.53;;;20.00;100.00
12676;BME280;63820;65.654;21.944;2023-07-31T04:10:39;100530.41;;;20.36;100.00
12676;BME280;63820;65.654;21.944;2023-07-31T04:13:23;100525.63;;;20.30;100.00
12676;BME280;63820;65.654;21.944;2023-07-31T04:16:12;100538.59;;;20.33;100.00
12676;BME280;63820;65.654;21.944;2023-07-31T04:18:56;100526.50;;;19.87;100.00
12676;BME280;63820;65.654;21.944;2023-07-31T04:21:41;100538.34;;;19.72;100.00
12676;BME280;63820;65.654;21.944;2023-07-31T04:24:28;100530.06;;;19.20;100.00
12676;BME280;63820;65.654;21.944;2023-07-31T04:27:14;100539.03;;;18.62;100.00
12676;BME280;63820;65.654;21.944;2023-07-31T04:30:01;100536.09;;;18.54;100.00
12676;BME280;63820;65.654;21.944;2023-07-31T04:32:47;100532.81;;;18.39;100.00
12676;BME280;63820;65.654;21.944;2023-07-31T04:35:33;100530.91;;;18.41;100.00
12676;BME280;63820;65.654;21.944;2023-07-31T04:38:20;100533.81;;;18.49;100.00
12676;BME280;63820;65.654;21.944;2023-07-31T04:41:08;100533.56;;;18.52;100.00
12676;BME280;63820;65.654;21.944;2023-07-31T04:43:53;100521.72;;;18.58;100.00
12676;BME280;63820;65.654;21.944;2023-07-31T04:46:39;100532.69;;;18.65;100.00
12676;BME280;63820;65.654;21.944;2023-07-31T04:49:25;100535.91;;;18.79;100.00
12676;BME280;63820;65.654;21.944;2023-07-31T04:52:11;100532.31;;;18.80;100.00
12676;BME280;63820;65.654;21.944;2023-07-31T04:54:55;100539.06;;;18.95;100.00
12676;BME280;63820;65.654;21.944;2023-07-31T04:57:39;100529.09;;;18.88;100.00
12676;BME280;63820;65.654;21.944;2023-07-31T05:00:23;100536.78;;;18.91;100.00
12676;BME280;63820;65.654;21.944;2023-07-31T05:03:07;100539.75;;;18.64;100.00
12676;BME280;63820;65.654;21.944;2023-07-31T05:05:52;100556.72;;;18.60;100.00
12676;BME280;63820;65.654;21.944;2023-07-31T05:08:37;100558.44;;;18.61;100.00
12676;BME280;63820;65.654;21.944;2023-07-31T05:11:27;100552.31;;;18.60;100.00
12676;BME280;63820;65.654;21.944;2023-07-31T05:14:12;100547.22;;;18.46;100.00
12676;BME280;63820;65.654;21.944;2023-07-31T05:16:57;100553.59;;;18.55;100.00
12676;BME280;63820;65.654;21.944;2023-07-31T05:19:55;100547.25;;;18.57;100.00
12676;BME280;63820;65.654;21.944;2023-07-31T05:22:41;100552.19;;;18.62;100.00
12676;BME280;63820;65.654;21.944;2023-07-31T05:26:04;100556.16;;;18.68;100.00
12676;BME280;63820;65.654;21.944;2023-07-31T05:29:01;100548.50;;;18.87;100.00
12676;BME280;63820;65.654;21.944;2023-07-31T05:32:07;100536.78;;;19.36;100.00
12676;BME280;63820;65.654;21.944;2023-07-31T05:34:53;100538.97;;;19.96;100.00
12676;BME280;63820;65.654;21.944;2023-07-31T05:37:37;100524.31;;;20.24;100.00
12676;BME280;63820;65.654;21.944;2023-07-31T05:40:22;100534.22;;;20.84;100.00
12676;BME280;63820;65.654;21.944;2023-07-31T05:43:06;100533.34;;;20.74;100.00
12676;BME280;63820;65.654;21.944;2023-07-31T05:45:52;100544.84;;;21.55;100.00
12676;BME280;63820;65.654;21.944;2023-07-31T05:48:36;100545.44;;;22.94;100.00
12676;BME280;63820;65.654;21.944;2023-07-31T05:51:24;100556.56;;;24.52;100.00
12676;BME280;63820;65.654;21.944;2023-07-31T05:54:13;100556.91;;;25.69;100.00
12676;BME280;63820;65.654;21.944;2023-07-31T05:56:59;100557.19;;;26.65;96.73
12676;BME280;63820;65.654;21.944;2023-07-31T05:59:43;100541.38;;;27.19;86.98
12676;BME280;63820;65.654;21.944;2023-07-31T06:02:27;100557.38;;;27.27;80.11
12676;BME280;63820;65.654;21.944;2023-07-31T06:05:10;100554.09;;;27.56;84.38
12676;BME280;63820;65.654;21.944;2023-07-31T06:07:55;100549.41;;;27.58;82.23
12676;BME280;63820;65.654;21.944;2023-07-31T06:10:41;100565.97;;;27.61;75.05
12676;BME280;63820;65.654;21.944;2023-07-31T06:13:27;100561.81;;;27.51;79.57
12676;BME280;63820;65.654;21.944;2023-07-31T06:16:11;100564.13;;;27.54;75.75
12676;BME280;63820;65.654;21.944;2023-07-31T06:18:57;100560.38;;;26.52;78.77
12676;BME280;63820;65.654;21.944;2023-07-31T06:21:48;100551.00;;;26.64;86.27
12676;BME280;63820;65.654;21.944;2023-07-31T06:24:38;100565.41;;;27.74;72.56
12676;BME280;63820;65.654;21.944;2023-07-31T06:27:36;100568.66;;;27.92;71.49
12676;BME280;63820;65.654;21.944;2023-07-31T06:30:20;100578.16;;;27.56;71.65
12676;BME280;63820;65.654;21.944;2023-07-31T06:33:06;100568.97;;;27.58;75.15
12676;BME280;63820;65.654;21.944;2023-07-31T06:35:50;100569.59;;;27.21;71.64
12676;BME280;63820;65.654;21.944;2023-07-31T06:38:55;100580.03;;;27.47;69.91
12676;BME280;63820;65.654;21.944;2023-07-31T06:41:42;100580.03;;;26.92;73.17
12676;BME280;63820;65.654;21.944;2023-07-31T06:44:32;100581.69;;;26.85;80.33
12676;BME280;63820;65.654;21.944;2023-07-31T06:47:19;100579.03;;;26.85;71.13
12676;BME280;63820;65.654;21.944;2023-07-31T06:50:08;100570.78;;;28.20;71.38
12676;BME280;63820;65.654;21.944;2023-07-31T06:52:54;100569.34;;;28.09;65.47
12676;BME280;63820;65.654;21.944;2023-07-31T06:55:39;100573.81;;;27.94;65.67
12676;BME280;63820;65.654;21.944;2023-07-31T06:59:08;100570.13;;;28.18;66.79
12676;BME280;63820;65.654;21.944;2023-07-31T07:01:54;100573.31;;;28.44;62.86
12676;BME280;63820;65.654;21.944;2023-07-31T07:04:40;100580.56;;;29.11;63.87
12676;BME280;63820;65.654;21.944;2023-07-31T07:07:26;100575.41;;;29.89;62.44
12676;BME280;63820;65.654;21.944;2023-07-31T07:10:19;100587.41;;;31.41;58.39
12676;BME280;63820;65.654;21.944;2023-07-31T07:13:05;100580.97;;;31.70;55.50
12676;BME280;63820;65.654;21.944;2023-07-31T07:15:50;100578.59;;;31.61;56.62
12676;BME280;63820;65.654;21.944;2023-07-31T07:18:35;100587.06;;;31.51;53.78
12676;BME280;63820;65.654;21.944;2023-07-31T07:21:20;100587.06;;;31.51;50.31
12676;BME280;63820;65.654;21.944;2023-07-31T07:24:04;100586.63;;;31.47;49.72
12676;BME280;63820;65.654;21.944;2023-07-31T07:26:48;100590.22;;;32.35;49.34
12676;BME280;63820;65.654;21.944;2023-07-31T07:29:34;100591.25;;;32.34;47.30
12676;BME280;63820;65.654;21.944;2023-07-31T07:32:18;100592.53;;;32.65;47.74
12676;BME280;63820;65.654;21.944;2023-07-31T07:35:03;100590.47;;;33.64;45.20
12676;BME280;63820;65.654;21.944;2023-07-31T07:37:49;100585.28;;;32.65;46.24
12676;BME280;63820;65.654;21.944;2023-07-31T07:40:38;100579.72;;;30.69;48.73
12676;BME280;63820;65.654;21.944;2023-07-31T07:43:23;100579.56;;;28.97;54.27
12676;BME280;63820;65.654;21.944;2023-07-31T07:46:07;100579.09;;;27.79;54.03
12676;BME280;63820;65.654;21.944;2023-07-31T07:48:53;100594.59;;;28.38;55.33
12676;BME280;63820;65.654;21.944;2023-07-31T07:51:39;100594.22;;;28.86;54.10
12676;BME280;63820;65.654;21.944;2023-07-31T07:54:26;100591.47;;;29.68;50.16
12676;BME280;63820;65.654;21.944;2023-07-31T07:57:25;100600.19;;;29.91;52.20
12676;BME280;63820;65.654;21.944;2023-07-31T08:00:15;100593.44;;;27.86;55.79
12676;BME280;63820;65.654;21.944;2023-07-31T08:03:00;100593.06;;;26.38;59.69
12676;BME280;63820;65.654;21.944;2023-07-31T08:05:44;100591.25;;;25.72;61.04
12676;BME280;63820;65.654;21.944;2023-07-31T08:08:29;100595.66;;;25.97;61.10
12676;BME280;63820;65.654;21.944;2023-07-31T08:11:13;100604.06;;;25.42;64.20
12676;BME280;63820;65.654;21.944;2023-07-31T08:13:57;100612.75;;;26.37;62.45
12676;BME280;63820;65.654;21.944;2023-07-31T08:16:43;100613.00;;;28.10;56.59
12676;BME280;63820;65.654;21.944;2023-07-31T08:19:31;100623.34;;;27.34;56.65
12676;BME280;63820;65.654;21.944;2023-07-31T08:22:19;100615.94;;;27.61;58.77
12676;BME280;63820;65.654;21.944;2023-07-31T08:25:03;100617.28;;;27.96;55.56
12676;BME280;63820;65.654;21.944;2023-07-31T08:28:01;100619.47;;;28.92;54.57
12676;BME280;63820;65.654;21.944;2023-07-31T08:30:45;100609.88;;;28.75;52.43
12676;BME280;63820;65.654;21.944;2023-07-31T08:33:29;100610.91;;;28.28;58.11
12676;BME280;63820;65.654;21.944;2023-07-31T08:36:13;100614.44;;;27.97;55.36
12676;BME280;63820;65.654;21.944;2023-07-31T08:39:00;100617.59;;;28.01;57.78
12676;BME280;63820;65.654;21.944;2023-07-31T08:41:45;100621.13;;;29.22;55.61
12676;BME280;63820;65.654;21.944;2023-07-31T08:44:31;100622.63;;;29.69;51.58
12676;BME280;63820;65.654;21.944;2023-07-31T08:47:19;100620.84;;;30.70;51.74
12676;BME280;63820;65.654;21.944;2023-07-31T08:50:05;100627.47;;;30.95;50.91
12676;BME280;63820;65.654;21.944;2023-07-31T08:52:52;100635.91;;;32.90;49.82
12676;BME280;63820;65.654;21.944;2023-07-31T08:59:22;100629.72;;;34.99;46.36
12676;BME280;63820;65.654;21.944;2023-07-31T09:02:08;100622.59;;;33.14;43.33
12676;BME280;63820;65.654;21.944;2023-07-31T09:04:55;100627.09;;;31.67;46.59
12676;BME280;63820;65.654;21.944;2023-07-31T09:07:40;100634.63;;;31.44;51.11
12676;BME280;63820;65.654;21.944;2023-07-31T09:10:26;100616.53;;;29.46;51.70
12676;BME280;63820;65.654;21.944;2023-07-31T09:13:10;100635.59;;;29.51;54.03
12676;BME280;63820;65.654;21.944;2023-07-31T09:15:55;100629.28;;;29.73;50.04
12676;BME280;63820;65.654;21.944;2023-07-31T09:18:56;100629.94;;;31.18;52.01
12676;BME280;63820;65.654;21.944;2023-07-31T09:21:50;100627.78;;;30.57;50.25
12676;BME280;63820;65.654;21.944;2023-07-31T09:24:35;100623.06;;;30.23;49.82
12676;BME280;63820;65.654;21.944;2023-07-31T09:27:19;100625.56;;;30.04;51.05
12676;BME280;63820;65.654;21.944;2023-07-31T09:30:05;100625.28;;;29.25;52.38
12676;BME280;63820;65.654;21.944;2023-07-31T09:32:58;100622.69;;;28.64;53.08
12676;BME280;63820;65.654;21.944;2023-07-31T09:35:44;100618.25;;;28.03;54.37
12676;BME280;63820;65.654;21.944;2023-07-31T09:38:30;100627.03;;;27.89;55.27
12676;BME280;63820;65.654;21.944;2023-07-31T09:41:14;100623.03;;;27.85;54.88
12676;BME280;63820;65.654;21.944;2023-07-31T09:44:00;100616.94;;;27.60;56.12
12676;BME280;63820;65.654;21.944;2023-07-31T09:46:45;100626.44;;;26.75;58.13
12676;BME280;63820;65.654;21.944;2023-07-31T09:49:30;100619.84;;;26.12;60.37
12676;BME280;63820;65.654;21.944;2023-07-31T09:52:14;100621.75;;;26.36;60.78
12676;BME280;63820;65.654;21.944;2023-07-31T09:54:58;100621.31;;;26.06;62.43
12676;BME280;63820;65.654;21.944;2023-07-31T09:57:45;100626.63;;;25.90;66.37
12676;BME280;63820;65.654;21.944;2023-07-31T10:00:30;100621.38;;;25.38;66.02
12676;BME280;63820;65.654;21.944;2023-07-31T10:03:16;100633.41;;;24.73;72.23
12676;BME280;63820;65.654;21.944;2023-07-31T10:06:04;100636.03;;;24.91;76.08
12676;BME280;63820;65.654;21.944;2023-07-31T10:08:52;100643.63;;;25.03;80.60
12676;BME280;63820;65.654;21.944;2023-07-31T10:11:47;100638.50;;;25.10;86.65
12676;BME280;63820;65.654;21.944;2023-07-31T10:14:37;100637.34;;;24.87;79.46
12676;BME280;63820;65.654;21.944;2023-07-31T10:17:27;100635.09;;;24.56;78.57
12676;BME280;63820;65.654;21.944;2023-07-31T10:20:15;100633.72;;;24.52;83.65
12676;BME280;63820;65.654;21.944;2023-07-31T10:23:01;100640.09;;;24.59;93.78
12676;BME280;63820;65.654;21.944;2023-07-31T10:25:46;100640.34;;;24.48;85.80
12676;BME280;63820;65.654;21.944;2023-07-31T10:28:32;100637.94;;;25.24;83.42
12676;BME280;63820;65.654;21.944;2023-07-31T10:31:24;100645.06;;;25.76;78.96
12676;BME280;63820;65.654;21.944;2023-07-31T10:34:09;100629.09;;;26.50;73.07
12676;BME280;63820;65.654;21.944;2023-07-31T10:37:45;100649.63;;;26.90;70.74
12676;BME280;63820;65.654;21.944;2023-07-31T10:40:43;100647.09;;;27.85;62.73
12676;BME280;63820;65.654;21.944;2023-07-31T10:43:28;100630.56;;;29.18;61.92
12676;BME280;63820;65.654;21.944;2023-07-31T10:46:16;100640.41;;;29.70;58.34
12676;BME280;63820;65.654;21.944;2023-07-31T10:49:02;100643.22;;;29.24;58.89
12676;BME280;63820;65.654;21.944;2023-07-31T10:51:47;100643.50;;;28.31;59.45
12676;BME280;63820;65.654;21.944;2023-07-31T10:54:35;100642.09;;;27.26;66.32
12676;BME280;63820;65.654;21.944;2023-07-31T10:57:23;100640.13;;;26.71;70.81
12676;BME280;63820;65.654;21.944;2023-07-31T11:00:32;100647.16;;;26.97;70.40
12676;BME280;63820;65.654;21.944;2023-07-31T11:03:19;100633.59;;;27.78;62.72
12676;BME280;63820;65.654;21.944;2023-07-31T11:06:13;100630.28;;;30.23;58.62
12676;BME280;63820;65.654;21.944;2023-07-31T11:08:58;100645.63;;;31.90;51.41
12676;BME280;63820;65.654;21.944;2023-07-31T11:11:47;100636.16;;;31.18;51.07
12676;BME280;63820;65.654;21.944;2023-07-31T11:14:35;100640.06;;;30.67;50.22
12676;BME280;63820;65.654;21.944;2023-07-31T11:17:19;100631.31;;;30.43;51.50
12676;BME280;63820;65.654;21.944;2023-07-31T11:20:04;100637.25;;;29.52;55.92
12676;BME280;63820;65.654;21.944;2023-07-31T11:22:49;100638.56;;;28.89;57.58
12676;BME280;63820;65.654;21.944;2023-07-31T11:25:38;100645.28;;;27.77;59.78
12676;BME280;63820;65.654;21.944;2023-07-31T11:28:25;100636.59;;;26.38;60.02
12676;BME280;63820;65.654;21.944;2023-07-31T11:31:10;100641.31;;;25.60;67.74
12676;BME280;63820;65.654;21.944;2023-07-31T11:34:06;100634.06;;;25.19;71.20
12676;BME280;63820;65.654;21.944;2023-07-31T11:36:55;100636.22;;;25.15;78.68
12676;BME280;63820;65.654;21.944;2023-07-31T11:39:39;100633.84;;;24.33;79.42
12676;BME280;63820;65.654;21.944;2023-07-31T11:42:24;100630.91;;;24.36;85.24
12676;BME280;63820;65.654;21.944;2023-07-31T11:45:08;100619.44;;;24.08;93.92
12676;BME280;63820;65.654;21.944;2023-07-31T11:52:07;100631.91;;;24.25;90.03
12676;BME280;63820;65.654;21.944;2023-07-31T11:54:56;100635.84;;;24.49;89.53
12676;BME280;63820;65.654;21.944;2023-07-31T11:57:57;100633.25;;;24.39;86.52
12676;BME280;63820;65.654;21.944;2023-07-31T12:01:57;100631.50;;;24.65;90.88
12676;BME280;63820;65.654;21.944;2023-07-31T12:04:53;100636.53;;;24.33;85.32
12676;BME280;63820;65.654;21.944;2023-07-31T12:07:50;100623.69;;;24.46;88.33
12676;BME280;63820;65.654;21.944;2023-07-31T12:10:34;100615.91;;;24.70;86.74
12676;BME280;63820;65.654;21.944;2023-07-31T12:13:25;100619.38;;;24.89;84.65
12676;BME280;63820;65.654;21.944;2023-07-31T12:16:10;100608.72;;;24.89;84.96
12676;BME280;63820;65.654;21.944;2023-07-31T12:18:54;100615.84;;;25.06;88.36
12676;BME280;63820;65.654;21.944;2023-07-31T12:21:56;100613.22;;;25.40;82.06
12676;BME280;63820;65.654;21.944;2023-07-31T12:24:47;100601.53;;;25.07;84.27
12676;BME280;63820;65.654;21.944;2023-07-31T12:31:41;100610.50;;;24.80;72.05
12676;BME280;63820;65.654;21.944;2023-07-31T12:35:00;100594.66;;;24.35;77.99
12676;BME280;63820;65.654;21.944;2023-07-31T12:38:03;100602.09;;;24.31;73.87
12676;BME280;63820;65.654;21.944;2023-07-31T12:41:17;100602.81;;;24.24;80.48
12676;BME280;63820;65.654;21.944;2023-07-31T12:44:19;100600.25;;;24.32;86.30
12676;BME280;63820;65.654;21.944;2023-07-31T12:54:30;100592.81;;;24.53;89.96
12676;BME280;63820;65.654;21.944;2023-07-31T12:57:22;100574.34;;;24.34;90.72
12676;BME280;63820;65.654;21.944;2023-07-31T13:00:11;100593.75;;;23.81;87.24
12676;BME280;63820;65.654;21.944;2023-07-31T13:06:14;100572.06;;;23.58;89.91
12676;BME280;63820;65.654;21.944;2023-07-31T13:09:04;100575.25;;;23.62;89.58
12676;BME280;63820;65.654;21.944;2023-07-31T13:12:19;100571.91;;;23.60;90.23
12676;BME280;63820;65.654;21.944;2023-07-31T13:15:06;100576.53;;;23.48;86.47
12676;BME280;63820;65.654;21.944;2023-07-31T13:17:54;100581.06;;;23.75;100.00
12676;BME280;63820;65.654;21.944;2023-07-31T13:20:39;100564.13;;;23.94;91.12
12676;BME280;63820;65.654;21.944;2023-07-31T13:27:00;100557.63;;;25.11;81.21
12676;BME280;63820;65.654;21.944;2023-07-31T13:29:56;100560.47;;;25.18;84.04
12676;BME280;63820;65.654;21.944;2023-07-31T13:37:08;100556.41;;;25.73;72.81
12676;BME280;63820;65.654;21.944;2023-07-31T13:39:56;100553.81;;;25.14;74.84
12676;BME280;63820;65.654;21.944;2023-07-31T13:43:23;100562.16;;;24.93;76.26
12676;BME280;63820;65.654;21.944;2023-07-31T13:46:27;100555.16;;;24.92;72.06
12676;BME280;63820;65.654;21.944;2023-07-31T13:49:34;100547.97;;;25.10;80.50
12676;BME280;63820;65.654;21.944;2023-07-31T13:52:22;100544.00;;;24.62;77.75
12676;BME280;63820;65.654;21.944;2023-07-31T13:55:18;100550.78;;;24.39;85.59
12676;BME280;63820;65.654;21.944;2023-07-31T13:58:52;100547.53;;;24.71;79.75
12676;BME280;63820;65.654;21.944;2023-07-31T14:02:10;100549.06;;;24.73;77.08
12676;BME280;63820;65.654;21.944;2023-07-31T14:04:58;100542.31;;;24.61;77.34
12676;BME280;63820;65.654;21.944;2023-07-31T14:12:16;100539.50;;;25.15;86.29
12676;BME280;63820;65.654;21.944;2023-07-31T14:15:03;100538.78;;;25.38;87.40
12676;BME280;63820;65.654;21.944;2023-07-31T14:18:23;100537.13;;;25.46;79.70
12676;BME280;63820;65.654;21.944;2023-07-31T14:25:01;100529.84;;;25.56;78.83
12676;BME280;63820;65.654;21.944;2023-07-31T14:31:43;100536.88;;;25.23;75.84
12676;BME280;63820;65.654;21.944;2023-07-31T14:35:28;100524.34;;;25.15;70.33
12676;BME280;63820;65.654;21.944;2023-07-31T14:41:51;100519.38;;;24.25;77.57
12676;BME280;63820;65.654;21.944;2023-07-31T14:44:52;100528.06;;;24.27;74.84
12676;BME280;63820;65.654;21.944;2023-07-31T14:51:46;100504.81;;;24.29;80.13
12676;BME280;63820;65.654;21.944;2023-07-31T14:54:43;100511.47;;;23.97;77.10
12676;BME280;63820;65.654;21.944;2023-07-31T14:58:09;100512.84;;;23.66;72.07
12676;BME280;63820;65.654;21.944;2023-07-31T15:01:15;100512.72;;;23.85;76.27
12676;BME280;63820;65.654;21.944;2023-07-31T15:04:13;100513.53;;;23.68;72.53
12676;BME280;63820;65.654;21.944;2023-07-31T15:07:01;100516.50;;;23.65;76.76
12676;BME280;63820;65.654;21.944;2023-07-31T15:09:58;100501.44;;;23.28;69.40
12676;BME280;63820;65.654;21.944;2023-07-31T15:16:11;100505.78;;;23.20;69.36
12676;BME280;63820;65.654;21.944;2023-07-31T15:22:35;100499.06;;;23.25;78.82
12676;BME280;63820;65.654;21.944;2023-07-31T15:25:20;100501.50;;;23.09;72.39
12676;BME280;63820;65.654;21.944;2023-07-31T15:28:10;100505.84;;;23.10;75.29
12676;BME280;63820;65.654;21.944;2023-07-31T15:31:04;100493.81;;;23.15;77.56